Impacts TAF Board
For situational awareness. Not to be used for flight planning purposes.
IDs:

KLRU - Las Cruces Intl, NM, US

Issued at 1720 UTC 01 Feb 2023
Updated at 2327 UTC 01 Feb 2023
Potential Impact None Slight Moderate High
Time2315Z 02/00Z 02/01Z 02/02Z 02/03Z 02/04Z 02/05Z 02/06Z 02/07Z 02/08Z 02/09Z 02/10Z 02/11Z 02/12Z>>
Type OBS PRVL PRVL PRVL PRVL PRVL PRVL PRVL PRVL PRVL PRVL PRVL PRVL PRVL
VIS 10 >6 >6 >6 >6 >6 >6 >6 >6 >6 >6 >6 >6 >6
CIG -- 200 80 80 80 80 80 80 80 80 80 80 80 80
Cover CLR BKN BKN BKN BKN BKN BKN BKN BKN BKN BKN BKN BKN BKN
FltCat VFR VFR VFR VFR VFR VFR VFR VFR VFR VFR VFR VFR VFR VFR
WX -- -- -- -- -- -- -- -- -- -- -- -- -- --
WDir 160 70 310 310 310 310 310 310 310 310 310 310 310 310
WSpd 5 6 6 6 6 6 6 6 6 6 6 6 6 6
WGst -- -- -- -- -- -- -- -- -- -- -- -- -- --
WSHgt -- -- -- -- -- -- -- -- -- -- -- -- -- --
WSDir -- -- -- -- -- -- -- -- -- -- -- -- -- --
WSSpd -- -- -- -- -- -- -- -- -- -- -- -- -- --
R04/22
XWnd -5 -2 6 6 6 6 6 6 6 6 6 6 6 6
HWnd -1 6 -2 -2 -2 -2 -2 -2 -2 -2 -2 -2 -2 -2
R08/26
XWnd -5 2 4 4 4 4 4 4 4 4 4 4 4 4
HWnd 2 6 -5 -5 -5 -5 -5 -5 -5 -5 -5 -5 -5 -5
R12/30
XWnd -2 5 -1 -1 -1 -1 -1 -1 -1 -1 -1 -1 -1 -1
HWnd 5 3 -6 -6 -6 -6 -6 -6 -6 -6 -6 -6 -6 -6

NOTE: LAMP data beyond the time of the TAF data is denoted as LAMP in Type and colored magenta.

Raw TAF
KLRU 011720Z 0118/0218 07006KT P6SM SCT080 BKN200
  FM020100 31006KT P6SM FEW030 BKN080


Raw METAR
KLRU 012315Z AUTO 16005KT 10SM CLR 14/M03 A3004 RMK AO2 T01401035
KLRU 012255Z AUTO 15005KT 10SM CLR 14/M03 A3004 RMK AO2 T01401035
KLRU 012235Z AUTO 16006KT 10SM SCT060 SCT110 14/M03 A3004 RMK AO2 T01431033
KLRU 012155Z AUTO 17006KT 10SM SCT100 13/M02 A3004 RMK AO2 T01291025
KLRU 012135Z AUTO 15007KT 10SM BKN100 13/M03 A3005 RMK AO2 T01261028
KLRU 012115Z AUTO 18005KT 10SM OVC100 13/M03 A3005 RMK AO2 T01301026
KLRU 012055Z AUTO 16004KT 10SM BKN110 13/M03 A3006 RMK AO2 T01251026
KLRU 012035Z AUTO 13006KT 10SM SCT110 12/M03 A3006 RMK AO2 T01181028

METAR Board
Radar Display
Forecast Discussion

For situational awareness. Not to be used for flight planning purposes.